createdAt,value
2018-06-24T00:02:06.976Z,95648.89
2018-06-24T00:04:35.616Z,95651.70
2018-06-24T00:07:04.222Z,95652.27
2018-06-24T00:09:32.806Z,95646.30
2018-06-24T00:12:01.397Z,95653.48
2018-06-24T00:14:30.019Z,95646.38
2018-06-24T00:16:58.626Z,95645.58
2018-06-24T00:19:28.217Z,95659.06
2018-06-24T00:21:56.813Z,95654.75
2018-06-24T00:24:25.490Z,95661.27
2018-06-24T00:26:54.075Z,95658.76
2018-06-24T00:29:22.676Z,95668.12
2018-06-24T00:31:51.275Z,95662.66
2018-06-24T00:34:19.927Z,95661.17
2018-06-24T00:36:48.545Z,95660.16
2018-06-24T00:39:17.150Z,95653.61
2018-06-24T00:41:45.753Z,95377.55
2018-06-24T00:44:14.373Z,95649.94
2018-06-24T00:46:42.970Z,95645.33
2018-06-24T00:49:11.629Z,95655.66
2018-06-24T00:51:40.278Z,95648.69
2018-06-24T00:54:08.941Z,95648.69
2018-06-24T00:56:37.499Z,95656.45
2018-06-24T00:59:06.094Z,95656.34
2018-06-24T01:01:34.759Z,95652.95
2018-06-24T01:04:03.341Z,95651.35
2018-06-24T01:06:31.974Z,95641.47
2018-06-24T01:09:00.647Z,95640.58
2018-06-24T01:11:29.263Z,95633.60
2018-06-24T01:13:57.864Z,95629.95
2018-06-24T01:16:26.478Z,95635.81
2018-06-24T01:18:55.452Z,95636.69
2018-06-24T01:21:24.092Z,95642.53
2018-06-24T01:23:52.739Z,95635.53
2018-06-24T01:26:21.355Z,95655.94
2018-06-24T01:28:49.950Z,95645.44
2018-06-24T01:31:18.583Z,95641.42
2018-06-24T01:33:47.200Z,95640.03
2018-06-24T01:36:15.842Z,95643.63
2018-06-24T01:38:44.448Z,95647.23
2018-06-24T01:41:13.029Z,95634.47
2018-06-24T01:43:41.680Z,95639.33
2018-06-24T01:46:10.604Z,95638.52
2018-06-24T01:48:39.174Z,95642.27
2018-06-24T01:51:07.792Z,95638.33
2018-06-24T01:53:36.395Z,95645.48
2018-06-24T01:56:04.997Z,95644.41
2018-06-24T01:58:33.679Z,95646.51
2018-06-24T02:01:02.597Z,95646.10
2018-06-24T02:03:31.189Z,95641.45
2018-06-24T02:05:59.817Z,95644.95
2018-06-24T02:08:28.425Z,95643.04
2018-06-24T02:10:57.035Z,95639.44
2018-06-24T02:13:25.639Z,95640.19
2018-06-24T02:15:54.534Z,95641.13
2018-06-24T02:18:23.111Z,95634.75
2018-06-24T02:20:51.774Z,95631.42
2018-06-24T02:23:20.359Z,95636.83
2018-06-24T02:25:49.032Z,95634.61
2018-06-24T02:28:17.714Z,95631.52
2018-06-24T02:30:46.451Z,95634.59
2018-06-24T02:33:15.157Z,95640.81
2018-06-24T02:35:43.755Z,95640.63
2018-06-24T02:38:12.439Z,95636.21
2018-06-24T02:40:41.036Z,95641.87
2018-06-24T02:43:10.011Z,95639.05
2018-06-24T02:45:38.647Z,95643.10
2018-06-24T02:48:07.263Z,95638.98
2018-06-24T02:50:35.934Z,95634.44
2018-06-24T02:53:04.956Z,95631.63
2018-06-24T02:55:33.571Z,95629.05
2018-06-24T02:58:02.143Z,95631.75
2018-06-24T03:00:30.765Z,95628.34
2018-06-24T03:02:59.382Z,95636.60
2018-06-24T03:05:28.065Z,95638.67
2018-06-24T03:07:57.242Z,95632.64
2018-06-24T03:10:25.869Z,95635.50
2018-06-24T03:12:54.486Z,95643.67
2018-06-24T03:15:23.158Z,95636.34
2018-06-24T03:17:51.785Z,95645.44
2018-06-24T03:20:20.405Z,95641.48
2018-06-24T03:22:49.011Z,95651.47
2018-06-24T03:25:17.736Z,95653.94
2018-06-24T03:27:46.335Z,95657.11
2018-06-24T03:30:14.991Z,95657.82
2018-06-24T03:32:43.670Z,95659.06
2018-06-24T03:35:12.327Z,95656.47
2018-06-24T03:37:40.982Z,95659.47
2018-06-24T03:40:09.613Z,95658.45
2018-06-24T03:42:38.254Z,95667.64
2018-06-24T03:45:07.199Z,95666.76
2018-06-24T03:47:35.808Z,95669.38
2018-06-24T03:50:04.494Z,95674.84
2018-06-24T03:52:33.107Z,95671.13
2018-06-24T03:55:01.718Z,95671.02
2018-06-24T03:57:30.348Z,95665.55
2018-06-24T03:59:58.931Z,95666.34
2018-06-24T04:02:27.535Z,95671.33
2018-06-24T04:04:56.194Z,95671.08
2018-06-24T04:07:24.822Z,95673.60
2018-06-24T04:09:53.415Z,95558.95
2018-06-24T04:12:22.092Z,95677.06
2018-06-24T04:14:50.715Z,95678.41
2018-06-24T04:17:19.432Z,95668.20
2018-06-24T04:19:48.050Z,95666.27
2018-06-24T04:22:16.693Z,95661.16
2018-06-24T04:24:45.695Z,95661.66
2018-06-24T04:27:14.363Z,95670.62
2018-06-24T04:29:43.366Z,95673.20
2018-06-24T04:32:12.223Z,95669.93
2018-06-24T04:34:40.888Z,95666.34
2018-06-24T04:37:09.520Z,95673.98
2018-06-24T04:39:38.167Z,95681.30
2018-06-24T04:42:06.851Z,95673.03
2018-06-24T04:44:35.526Z,95674.81
2018-06-24T04:47:04.142Z,95673.49
2018-06-24T04:49:32.766Z,94841.79
2018-06-24T04:52:01.418Z,95676.04
2018-06-24T04:54:30.007Z,95673.02
2018-06-24T04:56:58.640Z,95678.08
2018-06-24T04:59:27.540Z,95670.84
2018-06-24T05:01:56.456Z,95676.53
2018-06-24T05:04:25.062Z,95672.25
2018-06-24T05:06:53.806Z,95665.31
2018-06-24T05:09:22.454Z,95660.16
2018-06-24T05:11:51.443Z,95657.54
2018-06-24T05:14:20.077Z,95668.07
2018-06-24T05:16:48.739Z,95665.55
2018-06-24T05:19:17.335Z,95670.24
2018-06-24T05:21:46.160Z,95667.84
2018-06-24T05:24:14.764Z,95662.05
2018-06-24T05:26:43.405Z,95658.38
2018-06-24T05:29:12.007Z,95659.45
2018-06-24T05:31:40.854Z,95659.62
2018-06-24T05:34:09.454Z,95651.97
2018-06-24T05:36:38.071Z,95654.48
2018-06-24T05:39:09.706Z,95659.37
2018-06-24T05:41:38.314Z,95651.47
2018-06-24T05:44:07.035Z,95651.33
2018-06-24T05:46:35.692Z,95654.45
2018-06-24T05:49:04.362Z,95655.14
2018-06-24T05:51:32.969Z,95655.70
2018-06-24T05:54:01.617Z,95651.92
2018-06-24T05:56:30.237Z,95656.29
2018-06-24T05:58:58.875Z,95661.29
2018-06-24T06:01:27.490Z,95653.22
2018-06-24T06:03:56.257Z,95656.74
2018-06-24T06:06:24.846Z,95665.58
2018-06-24T06:08:53.447Z,95659.61
2018-06-24T06:11:22.077Z,95656.95
2018-06-24T06:13:51.047Z,95657.03
2018-06-24T06:16:19.748Z,95663.32
2018-06-24T06:18:48.380Z,95654.36
2018-06-24T06:21:17.342Z,95352.94
2018-06-24T06:23:45.959Z,95657.31
2018-06-24T06:26:14.548Z,95471.13
2018-06-24T06:28:43.161Z,95649.94
2018-06-24T06:31:11.746Z,95646.24
2018-06-24T06:33:40.341Z,95652.04
2018-06-24T06:36:09.057Z,95635.44
2018-06-24T06:38:37.696Z,95639.97
2018-06-24T06:41:06.314Z,95633.69
2018-06-24T06:43:35.006Z,95635.06
2018-06-24T06:46:07.480Z,95625.25
2018-06-24T06:48:36.156Z,95626.98
2018-06-24T06:51:04.883Z,95635.31
2018-06-24T06:53:33.466Z,95634.14
2018-06-24T06:56:02.395Z,95628.20
2018-06-24T06:58:31.041Z,95637.97
2018-06-24T07:00:59.733Z,95641.70
2018-06-24T07:03:28.408Z,95631.47
2018-06-24T07:05:56.986Z,95626.17
2018-06-24T07:08:25.638Z,95625.87
2018-06-24T07:10:54.291Z,95625.97
2018-06-24T07:13:22.933Z,95632.34
2018-06-24T07:15:51.579Z,95629.09
2018-06-24T07:18:20.247Z,95627.02
2018-06-24T07:20:48.963Z,95629.22
2018-06-24T07:23:19.406Z,95618.03
2018-06-24T07:25:48.041Z,95625.95
2018-06-24T07:28:16.636Z,95624.75
2018-06-24T07:30:45.842Z,95620.24
2018-06-24T07:33:15.028Z,95615.80
2018-06-24T07:35:43.617Z,95616.98
2018-06-24T07:38:12.318Z,95615.20
2018-06-24T07:40:41.194Z,95616.38
2018-06-24T07:43:09.827Z,95624.61
2018-06-24T07:45:38.491Z,95623.22
2018-06-24T07:48:07.187Z,95620.30
2018-06-24T07:50:35.735Z,95618.37
2018-06-24T07:53:04.415Z,95619.02
2018-06-24T07:55:33.246Z,95625.19
2018-06-24T07:58:01.905Z,95622.52
2018-06-24T08:00:30.573Z,95624.88
2018-06-24T08:02:59.237Z,95619.97
2018-06-24T08:05:27.846Z,95623.38
2018-06-24T08:07:56.507Z,95617.50
2018-06-24T08:10:25.086Z,95619.09
2018-06-24T08:12:53.714Z,95613.42
2018-06-24T08:15:22.276Z,95628.14
2018-06-24T08:17:50.881Z,95622.70
2018-06-24T08:20:19.464Z,95619.03
2018-06-24T08:22:48.160Z,95622.87
2018-06-24T08:25:16.754Z,95631.44
2018-06-24T08:27:45.350Z,95629.33
2018-06-24T08:30:13.936Z,95621.36
2018-06-24T08:32:43.012Z,95631.02
2018-06-24T08:35:11.593Z,95627.22
2018-06-24T08:37:40.516Z,95622.53
2018-06-24T08:40:09.174Z,95626.41
2018-06-24T08:42:37.897Z,95622.03
2018-06-24T08:45:06.654Z,95617.92
2018-06-24T08:47:35.308Z,95623.30
2018-06-24T08:50:03.950Z,95633.05
2018-06-24T08:52:32.547Z,95624.56
2018-06-24T08:55:01.146Z,95628.77
2018-06-24T08:57:29.759Z,95617.28
2018-06-24T08:59:58.377Z,95624.80
2018-06-24T09:02:27.351Z,95623.95
2018-06-24T09:04:55.941Z,95621.30
2018-06-24T09:07:24.731Z,95588.86
2018-06-24T09:09:53.329Z,95625.64
2018-06-24T09:12:21.994Z,95613.59
2018-06-24T09:14:50.635Z,95617.01
2018-06-24T09:17:19.264Z,95611.53
2018-06-24T09:19:48.284Z,95616.73
2018-06-24T09:22:17.239Z,95609.91
2018-06-24T09:24:46.090Z,95606.91
2018-06-24T09:27:15.373Z,95600.17
2018-06-24T09:29:44.019Z,95599.98
2018-06-24T09:32:12.641Z,95607.62
2018-06-24T09:34:41.227Z,95598.20
2018-06-24T09:37:09.886Z,95596.45
2018-06-24T09:39:38.599Z,95592.73
2018-06-24T09:42:07.237Z,95596.64
2018-06-24T09:44:35.815Z,95592.91
2018-06-24T09:47:05.020Z,95586.00
2018-06-24T09:49:33.954Z,95588.33
2018-06-24T09:52:02.719Z,95588.70
2018-06-24T09:54:31.306Z,95594.78
2018-06-24T09:57:00.163Z,95586.53
2018-06-24T09:59:29.058Z,95586.30
2018-06-24T10:02:04.055Z,95585.98
2018-06-24T10:04:32.659Z,95587.15
2018-06-24T10:07:01.261Z,95582.81
2018-06-24T10:09:29.929Z,95574.48
2018-06-24T10:11:59.148Z,95575.59
2018-06-24T10:14:27.755Z,95578.63
2018-06-24T10:16:56.437Z,95569.34
2018-06-24T10:19:25.000Z,95568.94
2018-06-24T10:21:53.687Z,95575.14
2018-06-24T10:24:22.336Z,95563.25
2018-06-24T10:26:51.342Z,95562.09
2018-06-24T10:29:19.932Z,95561.19
2018-06-24T10:31:48.554Z,95559.00
2018-06-24T10:34:17.313Z,95566.89
2018-06-24T10:36:45.905Z,95571.17
2018-06-24T10:39:14.508Z,95563.81
2018-06-24T10:41:43.157Z,95464.66
2018-06-24T10:44:11.778Z,95557.34
2018-06-24T10:46:40.382Z,95559.46
2018-06-24T10:49:09.006Z,95548.14
2018-06-24T10:51:37.644Z,95554.44
2018-06-24T10:54:06.584Z,95548.95
2018-06-24T10:56:35.840Z,95547.68
2018-06-24T10:59:04.484Z,95556.74
2018-06-24T11:01:33.095Z,95557.11
2018-06-24T11:04:01.658Z,95540.66
2018-06-24T11:06:30.211Z,95544.97
2018-06-24T11:08:58.802Z,95549.66
2018-06-24T11:11:27.591Z,95536.69
2018-06-24T11:13:56.206Z,95536.45
2018-06-24T11:16:24.781Z,95538.95
2018-06-24T11:18:53.739Z,95541.37
2018-06-24T11:21:22.318Z,95536.83
2018-06-24T11:23:51.136Z,95539.11
2018-06-24T11:26:19.993Z,95529.77
2018-06-24T11:28:48.777Z,95530.79
2018-06-24T11:31:17.409Z,95526.69
2018-06-24T11:33:46.049Z,95530.48
2018-06-24T11:36:14.716Z,95531.95
2018-06-24T11:38:43.332Z,95527.31
2018-06-24T11:41:11.990Z,95528.04
2018-06-24T11:43:40.598Z,95523.56
2018-06-24T11:46:09.273Z,95527.63
2018-06-24T11:48:37.958Z,95514.59
2018-06-24T11:51:06.589Z,95510.17
2018-06-24T11:53:35.383Z,95510.63
2018-06-24T11:56:03.999Z,95511.95
2018-06-24T11:58:32.618Z,95516.75
2018-06-24T12:01:01.310Z,95519.95
2018-06-24T12:03:29.950Z,95511.62
2018-06-24T12:05:58.564Z,95247.33
2018-06-24T12:08:27.427Z,95511.27
2018-06-24T12:10:56.118Z,95504.50
2018-06-24T12:13:24.707Z,95501.55
2018-06-24T12:15:53.454Z,95508.94
2018-06-24T12:18:22.025Z,95503.70
2018-06-24T12:20:50.629Z,95503.25
2018-06-24T12:23:19.227Z,95498.13
2018-06-24T12:25:47.898Z,95508.17
2018-06-24T12:28:16.468Z,95501.59
2018-06-24T12:30:45.106Z,95498.99
2018-06-24T12:33:13.709Z,95497.30
2018-06-24T12:35:42.307Z,95493.39
2018-06-24T12:38:10.887Z,95489.91
2018-06-24T12:40:40.280Z,95482.92
2018-06-24T12:43:08.875Z,95492.52
2018-06-24T12:45:37.513Z,95473.49
2018-06-24T12:48:06.105Z,95472.28
2018-06-24T12:50:34.698Z,95472.73
2018-06-24T12:53:03.283Z,95479.20
2018-06-24T12:55:31.888Z,95478.61
2018-06-24T12:58:00.502Z,95477.84
2018-06-24T13:00:30.099Z,95480.56
2018-06-24T13:02:58.496Z,95479.09
2018-06-24T13:05:27.329Z,95475.12
2018-06-24T13:07:55.889Z,95473.96
2018-06-24T13:10:24.591Z,95469.69
2018-06-24T13:12:53.172Z,95476.48
2018-06-24T13:15:21.754Z,95470.55
2018-06-24T13:17:50.434Z,95475.92
2018-06-24T13:20:19.070Z,95462.22
2018-06-24T13:22:47.706Z,95457.02
2018-06-24T13:25:16.301Z,95461.42
2018-06-24T13:27:44.932Z,95455.73
2018-06-24T13:30:13.604Z,95455.02
2018-06-24T13:32:43.148Z,95459.84
2018-06-24T13:35:11.748Z,95456.53
2018-06-24T13:37:40.384Z,95458.86
2018-06-24T13:40:08.992Z,95461.70
2018-06-24T13:42:37.705Z,95457.58
2018-06-24T13:45:07.924Z,95453.67
2018-06-24T13:47:36.543Z,95447.64
2018-06-24T13:50:05.232Z,95448.67
2018-06-24T13:52:33.804Z,95456.07
2018-06-24T13:55:02.414Z,95444.67
2018-06-24T13:57:30.994Z,95452.38
2018-06-24T13:59:59.651Z,95453.89
2018-06-24T14:02:28.309Z,95455.12
2018-06-24T14:04:57.025Z,95448.61
2018-06-24T14:07:25.651Z,95447.64
2018-06-24T14:09:54.258Z,95454.02
2018-06-24T14:12:22.873Z,95446.51
2018-06-24T14:14:51.530Z,95443.14
2018-06-24T14:17:20.251Z,95441.28
2018-06-24T14:19:48.883Z,95439.52
2018-06-24T14:22:17.526Z,95435.19
2018-06-24T14:24:46.137Z,95438.44
2018-06-24T14:27:14.762Z,95435.63
2018-06-24T14:29:43.378Z,95437.42
2018-06-24T14:32:12.543Z,95434.25
2018-06-24T14:34:41.146Z,95435.95
2018-06-24T14:37:09.918Z,95430.93
2018-06-24T14:39:38.542Z,95429.08
2018-06-24T14:42:07.239Z,95425.00
2018-06-24T14:44:36.139Z,95425.35
2018-06-24T14:47:04.928Z,95424.64
2018-06-24T14:49:33.575Z,95426.75
2018-06-24T14:52:02.304Z,95424.98
2018-06-24T14:54:30.904Z,95418.38
2018-06-24T14:56:59.720Z,95415.99
2018-06-24T14:59:28.684Z,95418.28
2018-06-24T15:01:57.248Z,95412.15
2018-06-24T15:04:26.148Z,95410.36
2018-06-24T15:06:54.847Z,95410.56
2018-06-24T15:09:23.459Z,95413.10
2018-06-24T15:11:52.064Z,95411.98
2018-06-24T15:14:20.694Z,95406.12
2018-06-24T15:16:49.367Z,95401.59
2018-06-24T15:19:17.986Z,95399.56
2018-06-24T15:21:46.900Z,95397.11
2018-06-24T15:24:15.517Z,95394.36
2018-06-24T15:26:44.144Z,95394.57
2018-06-24T15:29:12.784Z,95395.23
2018-06-24T15:31:41.408Z,95390.59
2018-06-24T15:34:10.034Z,95392.22
2018-06-24T15:36:38.643Z,95392.86
2018-06-24T15:39:09.271Z,95396.44
2018-06-24T15:41:37.956Z,95291.81
2018-06-24T15:44:06.823Z,95397.60
2018-06-24T15:46:35.630Z,95384.45
2018-06-24T15:49:04.243Z,95390.73
2018-06-24T15:51:32.884Z,95390.59
2018-06-24T15:54:01.452Z,95390.70
2018-06-24T15:56:30.140Z,95393.45
2018-06-24T15:58:58.727Z,95395.63
2018-06-24T16:01:27.316Z,95404.23
2018-06-24T16:03:55.960Z,95399.63
2018-06-24T16:06:24.640Z,95397.47
2018-06-24T16:08:53.766Z,95392.94
2018-06-24T16:11:22.600Z,95399.59
2018-06-24T16:13:51.232Z,95410.34
2018-06-24T16:16:19.849Z,95411.22
2018-06-24T16:18:49.175Z,95418.46
2018-06-24T16:21:18.163Z,95418.66
2018-06-24T16:23:47.041Z,95416.60
2018-06-24T16:26:16.439Z,95424.33
2018-06-24T16:28:45.330Z,95416.30
2018-06-24T16:31:13.947Z,95417.27
2018-06-24T16:33:42.833Z,95427.08
2018-06-24T16:36:11.706Z,95428.45
2018-06-24T16:38:40.289Z,95423.19
2018-06-24T16:41:08.904Z,95429.86
2018-06-24T16:43:37.792Z,95433.42
2018-06-24T16:46:06.454Z,95429.70
2018-06-24T16:48:35.436Z,95437.14
2018-06-24T16:51:04.085Z,95432.05
2018-06-24T16:53:32.702Z,95429.31
2018-06-24T16:56:02.363Z,95433.02
2018-06-24T16:58:30.970Z,95429.66
2018-06-24T17:00:59.779Z,95245.42
2018-06-24T17:03:28.460Z,95433.55
2018-06-24T17:05:57.163Z,95432.38
2018-06-24T17:08:25.850Z,95430.42
2018-06-24T17:10:54.440Z,95436.49
2018-06-24T17:13:23.029Z,95434.72
2018-06-24T17:15:51.700Z,95438.03
2018-06-24T17:18:20.308Z,95438.19
2018-06-24T17:20:49.150Z,95439.77
2018-06-24T17:23:17.769Z,95445.80
2018-06-24T17:25:46.383Z,95446.36
2018-06-24T17:28:15.011Z,95448.36
2018-06-24T17:30:43.873Z,95454.99
2018-06-24T17:33:12.683Z,95458.86
2018-06-24T17:35:41.292Z,95451.25
2018-06-24T17:38:09.884Z,95454.97
2018-06-24T17:40:38.525Z,95459.66
2018-06-24T17:43:07.213Z,95471.55
2018-06-24T17:45:35.809Z,95469.75
2018-06-24T17:48:04.494Z,95475.02
2018-06-24T17:50:33.165Z,95472.02
2018-06-24T17:53:01.819Z,95476.02
2018-06-24T17:55:31.137Z,95479.34
2018-06-24T17:57:59.824Z,95469.98
2018-06-24T18:00:28.560Z,95471.31
2018-06-24T18:02:57.176Z,95472.50
2018-06-24T18:05:25.742Z,95413.76
2018-06-24T18:07:54.393Z,95479.38
2018-06-24T18:10:23.000Z,95482.69
2018-06-24T18:12:51.711Z,95485.98
2018-06-24T18:15:20.368Z,95489.48
2018-06-24T18:17:49.096Z,95492.16
2018-06-24T18:20:17.723Z,95491.08
2018-06-24T18:22:46.386Z,95497.16
2018-06-24T18:25:14.949Z,95497.11
2018-06-24T18:27:43.594Z,95502.70
2018-06-24T18:30:12.225Z,95504.63
2018-06-24T18:32:40.907Z,95509.34
2018-06-24T18:35:09.521Z,95507.81
2018-06-24T18:37:38.196Z,95514.94
2018-06-24T18:40:06.766Z,95511.98
2018-06-24T18:42:35.475Z,95509.81
2018-06-24T18:45:04.225Z,95515.62
2018-06-24T18:47:33.037Z,95525.13
2018-06-24T18:50:01.617Z,95522.11
2018-06-24T18:52:30.249Z,95531.48
2018-06-24T18:54:58.870Z,95528.34
2018-06-24T18:57:27.551Z,95523.59
2018-06-24T18:59:56.139Z,95529.33
2018-06-24T19:02:25.121Z,95535.36
2018-06-24T19:04:53.724Z,95538.55
2018-06-24T19:07:22.407Z,95536.16
2018-06-24T19:09:51.959Z,95533.56
2018-06-24T19:12:20.619Z,95528.46
2018-06-24T19:14:49.603Z,95539.14
2018-06-24T19:17:18.573Z,95537.13
2018-06-24T19:19:47.292Z,95534.89
2018-06-24T19:22:16.012Z,95533.28
2018-06-24T19:24:44.682Z,95541.06
2018-06-24T19:27:13.431Z,95539.05
2018-06-24T19:29:42.048Z,95545.42
2018-06-24T19:32:10.676Z,95540.41
2018-06-24T19:34:39.351Z,95553.10
2018-06-24T19:37:07.939Z,95545.23
2018-06-24T19:39:36.538Z,95535.77
2018-06-24T19:42:08.276Z,95541.77
2018-06-24T19:44:36.975Z,95537.84
2018-06-24T19:47:06.432Z,95544.22
2018-06-24T19:49:35.091Z,95543.41
2018-06-24T19:52:03.906Z,95548.39
2018-06-24T19:54:32.988Z,95554.20
2018-06-24T19:57:01.878Z,95547.89
2018-06-24T19:59:30.828Z,95552.31
2018-06-24T20:01:59.888Z,95544.13
2018-06-24T20:04:28.622Z,95551.55
2018-06-24T20:06:57.266Z,95556.78
2018-06-24T20:09:26.289Z,95557.73
2018-06-24T20:11:54.994Z,95549.64
2018-06-24T20:14:23.936Z,95544.66
2018-06-24T20:16:52.715Z,95555.98
2018-06-24T20:19:21.718Z,95549.92
2018-06-24T20:21:50.409Z,95475.64
2018-06-24T20:24:18.958Z,95548.38
2018-06-24T20:26:48.396Z,95546.75
2018-06-24T20:29:17.025Z,95544.72
2018-06-24T20:31:45.617Z,95542.21
2018-06-24T20:34:14.395Z,95542.68
2018-06-24T20:36:43.651Z,95542.88
2018-06-24T20:39:12.330Z,95542.09
2018-06-24T20:41:41.281Z,95550.64
2018-06-24T20:44:09.886Z,95545.72
2018-06-24T20:46:38.508Z,95548.45
2018-06-24T20:49:07.507Z,95546.95
2018-06-24T20:51:36.119Z,95548.11
2018-06-24T20:54:04.786Z,95541.08
2018-06-24T20:56:33.400Z,95543.80
2018-06-24T20:59:03.018Z,95539.78
2018-06-24T21:01:31.613Z,95537.10
2018-06-24T21:04:00.374Z,95545.77
2018-06-24T21:06:28.966Z,95550.84
2018-06-24T21:08:57.636Z,95541.83
2018-06-24T21:11:26.240Z,95538.05
2018-06-24T21:13:55.491Z,95533.32
2018-06-24T21:16:24.170Z,95538.70
2018-06-24T21:18:52.797Z,95532.98
2018-06-24T21:21:22.275Z,95531.23
2018-06-24T21:23:50.872Z,95526.16
2018-06-24T21:26:19.587Z,95522.16
2018-06-24T21:28:48.186Z,95525.67
2018-06-24T21:31:16.788Z,95528.91
2018-06-24T21:33:46.610Z,95523.34
2018-06-24T21:36:15.549Z,95529.50
2018-06-24T21:38:44.193Z,95296.13
2018-06-24T21:41:12.833Z,95525.26
2018-06-24T21:43:41.463Z,95530.42
2018-06-24T21:46:10.327Z,95523.02
2018-06-24T21:48:39.855Z,95525.41
2018-06-24T21:51:08.555Z,95529.48
2018-06-24T21:53:37.182Z,95525.70
2018-06-24T21:56:05.775Z,95531.66
2018-06-24T21:58:34.448Z,95524.63
2018-06-24T22:01:03.095Z,95532.93
2018-06-24T22:03:31.760Z,95525.99
2018-06-24T22:06:00.371Z,95527.86
2018-06-24T22:08:28.963Z,95527.92
2018-06-24T22:10:57.639Z,95528.66
2018-06-24T22:13:26.261Z,95520.47
2018-06-24T22:15:54.876Z,95522.05
2018-06-24T22:18:23.488Z,95523.84
2018-06-24T22:20:52.131Z,95518.48
2018-06-24T22:23:20.731Z,95519.41
2018-06-24T22:25:49.319Z,95518.76
2018-06-24T22:28:17.992Z,95525.23
2018-06-24T22:30:46.574Z,95527.66
2018-06-24T22:33:15.276Z,95531.75
2018-06-24T22:35:43.911Z,95532.03
2018-06-24T22:38:12.612Z,95527.14
2018-06-24T22:40:41.225Z,95526.87
2018-06-24T22:43:09.816Z,95536.44
2018-06-24T22:45:38.420Z,95530.55
2018-06-24T22:48:07.019Z,95519.25
2018-06-24T22:50:35.656Z,95520.91
2018-06-24T22:53:04.243Z,95524.83
2018-06-24T22:55:32.827Z,95524.20
2018-06-24T22:58:01.392Z,95523.33
2018-06-24T23:00:30.047Z,95526.47
2018-06-24T23:03:06.359Z,95526.70
2018-06-24T23:05:34.951Z,95533.27
2018-06-24T23:08:03.555Z,95537.28
2018-06-24T23:10:32.120Z,95530.76
2018-06-24T23:13:00.687Z,95524.38
2018-06-24T23:15:29.326Z,95523.52
2018-06-24T23:17:57.921Z,95524.17
2018-06-24T23:20:26.552Z,95522.16
2018-06-24T23:22:55.129Z,95519.05
2018-06-24T23:25:23.821Z,95516.83
2018-06-24T23:27:52.390Z,95521.33
2018-06-24T23:30:21.054Z,95516.98
2018-06-24T23:32:49.615Z,95515.06
2018-06-24T23:35:18.244Z,95521.30
2018-06-24T23:37:46.858Z,95519.94
2018-06-24T23:40:15.446Z,95528.98
2018-06-24T23:42:44.886Z,95528.22
2018-06-24T23:45:13.564Z,95524.14
2018-06-24T23:47:42.173Z,95519.31
2018-06-24T23:50:10.781Z,95518.45
2018-06-24T23:52:39.382Z,95519.58
2018-06-24T23:55:08.020Z,95518.02
2018-06-24T23:57:36.582Z,95515.34
